createdAt,value
2017-03-04T00:00:18.700Z,0
2017-03-04T00:00:59.073Z,0
2017-03-04T00:01:39.500Z,0
2017-03-04T00:02:19.916Z,0
2017-03-04T00:03:00.335Z,0
2017-03-04T00:03:40.777Z,0
2017-03-04T00:04:21.859Z,0
2017-03-04T00:05:02.263Z,0
2017-03-04T00:05:42.663Z,0
2017-03-04T00:06:23.045Z,0
2017-03-04T00:07:03.439Z,0
2017-03-04T00:07:43.837Z,0
2017-03-04T00:08:24.308Z,0
2017-03-04T00:09:04.733Z,0
2017-03-04T00:09:45.121Z,0
2017-03-04T00:10:25.521Z,0
2017-03-04T00:11:06.423Z,0
2017-03-04T00:11:46.807Z,0
2017-03-04T00:12:27.192Z,0
2017-03-04T00:13:07.575Z,0
2017-03-04T00:13:48.028Z,0
2017-03-04T00:14:28.434Z,0
2017-03-04T00:15:08.817Z,0
2017-03-04T00:15:49.220Z,0
2017-03-04T00:16:29.610Z,0
2017-03-04T00:17:09.995Z,0
2017-03-04T00:17:50.411Z,0
2017-03-04T00:18:30.786Z,0
2017-03-04T00:19:11.196Z,0
2017-03-04T00:19:51.591Z,0
2017-03-04T00:20:32.919Z,0
2017-03-04T00:21:13.295Z,0
2017-03-04T00:21:53.687Z,0
2017-03-04T00:23:51.287Z,0
2017-03-04T00:24:31.719Z,0
2017-03-04T00:25:12.159Z,0
2017-03-04T00:25:52.567Z,0
2017-03-04T00:26:32.963Z,0
2017-03-04T00:27:13.343Z,0
2017-03-04T00:27:53.719Z,0
2017-03-04T00:28:34.104Z,0
2017-03-04T00:29:14.496Z,0
2017-03-04T00:29:54.924Z,0
2017-03-04T00:30:35.419Z,0
2017-03-04T00:31:16.765Z,0
2017-03-04T00:31:57.125Z,0
2017-03-04T00:32:37.513Z,0
2017-03-04T00:33:17.903Z,0
2017-03-04T00:33:58.299Z,0
2017-03-04T00:34:38.758Z,0
2017-03-04T00:35:19.159Z,0
2017-03-04T00:37:36.837Z,0
2017-03-04T00:38:17.227Z,0
2017-03-04T00:38:57.624Z,0
2017-03-04T00:39:37.996Z,0
2017-03-04T00:40:18.358Z,0
2017-03-04T00:40:58.791Z,0
2017-03-04T00:41:39.185Z,0
2017-03-04T00:42:19.565Z,0
2017-03-04T00:42:59.953Z,0
2017-03-04T00:43:40.409Z,0
2017-03-04T00:44:20.826Z,0
2017-03-04T00:45:01.218Z,0
2017-03-04T00:45:41.593Z,0
2017-03-04T00:46:21.972Z,0
2017-03-04T00:47:02.365Z,0
2017-03-04T00:47:42.778Z,0
2017-03-04T00:48:23.146Z,0
2017-03-04T00:49:03.540Z,0
2017-03-04T00:49:43.955Z,0
2017-03-04T00:50:24.341Z,0
2017-03-04T00:51:04.728Z,0
2017-03-04T00:51:45.114Z,0
2017-03-04T00:52:25.506Z,0
2017-03-04T00:53:05.924Z,0
2017-03-04T00:53:46.299Z,0
2017-03-04T00:54:26.678Z,0
2017-03-04T00:55:07.092Z,0
2017-03-04T00:55:47.501Z,0
2017-03-04T00:56:27.890Z,0
2017-03-04T00:57:08.333Z,0
2017-03-04T00:59:05.841Z,0
2017-03-04T00:59:47.109Z,0
2017-03-04T01:00:27.512Z,0
2017-03-04T01:01:07.911Z,0
2017-03-04T01:01:48.311Z,0
2017-03-04T01:02:28.718Z,0
2017-03-04T01:03:09.188Z,0
2017-03-04T01:03:49.646Z,0
2017-03-04T01:04:30.052Z,0
2017-03-04T01:05:10.524Z,0
2017-03-04T01:05:50.938Z,0
2017-03-04T01:06:31.294Z,0
2017-03-04T01:07:11.687Z,0
2017-03-04T01:07:52.113Z,0
2017-03-04T01:08:32.536Z,0
2017-03-04T01:09:13.101Z,0
2017-03-04T01:09:53.455Z,0
2017-03-04T01:10:33.817Z,0
2017-03-04T01:11:14.224Z,0
2017-03-04T01:11:54.596Z,0
2017-03-04T01:12:35.007Z,0
2017-03-04T01:13:15.436Z,0
2017-03-04T01:13:55.836Z,0
2017-03-04T01:14:36.262Z,0
2017-03-04T01:15:16.661Z,0
2017-03-04T01:15:57.084Z,0
2017-03-04T01:16:37.472Z,0
2017-03-04T01:17:17.892Z,0
2017-03-04T01:17:58.260Z,0
2017-03-04T01:18:38.632Z,0
2017-03-04T01:19:19.023Z,0
2017-03-04T01:19:59.386Z,0
2017-03-04T01:20:39.759Z,0
2017-03-04T01:21:20.183Z,0
2017-03-04T01:23:47.968Z,0
2017-03-04T01:24:28.405Z,0
2017-03-04T01:25:08.826Z,0
2017-03-04T01:25:49.251Z,0
2017-03-04T01:26:29.663Z,0
2017-03-04T01:27:10.087Z,0
2017-03-04T01:27:50.511Z,0
2017-03-04T01:28:30.938Z,0
2017-03-04T01:29:11.351Z,0
2017-03-04T01:29:51.743Z,0
2017-03-04T01:30:33.670Z,0
2017-03-04T01:31:14.099Z,0
2017-03-04T01:31:54.550Z,0
2017-03-04T01:32:34.966Z,0
2017-03-04T01:33:15.389Z,0
2017-03-04T01:33:55.827Z,0
2017-03-04T01:34:36.268Z,0
2017-03-04T01:35:16.678Z,0
2017-03-04T01:35:57.105Z,0
2017-03-04T01:36:37.521Z,0
2017-03-04T01:37:17.928Z,0
2017-03-04T01:37:58.372Z,0
2017-03-04T01:38:38.786Z,0
2017-03-04T01:39:19.229Z,0
2017-03-04T01:39:59.660Z,0
2017-03-04T01:40:40.690Z,0
2017-03-04T01:41:21.135Z,0
2017-03-04T01:42:01.570Z,0
2017-03-04T01:42:42.004Z,0
2017-03-04T01:43:22.451Z,0
2017-03-04T01:44:03.869Z,0
2017-03-04T01:44:44.314Z,0
2017-03-04T01:45:24.766Z,0
2017-03-04T01:46:05.207Z,0
2017-03-04T01:46:45.644Z,0
2017-03-04T01:47:26.090Z,0
2017-03-04T01:48:06.497Z,0
2017-03-04T01:48:46.910Z,0
2017-03-04T01:49:27.293Z,0
2017-03-04T01:51:39.959Z,0
2017-03-04T01:52:20.934Z,0
2017-03-04T01:53:01.347Z,0
2017-03-04T01:53:41.802Z,0
2017-03-04T01:54:22.205Z,0
2017-03-04T01:55:03.417Z,0
2017-03-04T01:55:43.793Z,0
2017-03-04T01:56:24.240Z,0
2017-03-04T01:57:04.678Z,0
2017-03-04T01:57:45.068Z,0
2017-03-04T01:58:25.469Z,0
2017-03-04T01:59:05.876Z,0
2017-03-04T01:59:46.298Z,0
2017-03-04T02:00:26.711Z,0
2017-03-04T02:01:07.803Z,0
2017-03-04T02:01:48.236Z,0
2017-03-04T02:02:28.683Z,0
2017-03-04T02:03:09.128Z,0
2017-03-04T02:03:49.571Z,0
2017-03-04T02:04:30.927Z,0
2017-03-04T02:05:11.350Z,0
2017-03-04T02:05:51.783Z,0
2017-03-04T02:06:32.227Z,0
2017-03-04T02:07:12.671Z,0
2017-03-04T02:07:53.041Z,0
2017-03-04T02:08:33.435Z,0
2017-03-04T02:09:13.819Z,0
2017-03-04T02:09:54.255Z,0
2017-03-04T02:10:34.665Z,0
2017-03-04T02:11:15.093Z,0
2017-03-04T02:11:55.522Z,0
2017-03-04T02:12:36.649Z,0
2017-03-04T02:13:17.065Z,0
2017-03-04T02:13:57.485Z,0
2017-03-04T02:14:38.707Z,0
2017-03-04T02:15:19.116Z,0
2017-03-04T02:15:59.529Z,0
2017-03-04T02:16:39.957Z,0
2017-03-04T02:17:20.344Z,0
2017-03-04T02:18:00.742Z,0
2017-03-04T02:18:41.125Z,0
2017-03-04T02:19:21.490Z,0
2017-03-04T02:20:01.860Z,0
2017-03-04T02:20:42.261Z,0
2017-03-04T02:21:22.696Z,0
2017-03-04T02:22:03.136Z,0
2017-03-04T02:22:43.569Z,0
2017-03-04T02:23:24.848Z,0
2017-03-04T02:24:06.253Z,0
2017-03-04T02:24:46.687Z,0
2017-03-04T02:25:27.132Z,0
2017-03-04T02:26:07.588Z,0
2017-03-04T02:26:48.030Z,0
2017-03-04T02:27:28.441Z,0
2017-03-04T02:28:08.830Z,0
2017-03-04T02:28:49.272Z,0
2017-03-04T02:29:29.690Z,0
2017-03-04T02:30:10.104Z,0
2017-03-04T02:30:50.502Z,0
2017-03-04T02:32:43.040Z,0
2017-03-04T02:33:23.458Z,0
2017-03-04T02:34:03.876Z,0
2017-03-04T02:34:44.263Z,0
2017-03-04T02:35:24.648Z,0
2017-03-04T02:36:05.037Z,0
2017-03-04T02:36:45.430Z,0
2017-03-04T02:37:25.824Z,0
2017-03-04T02:38:06.217Z,0
2017-03-04T02:38:46.705Z,0
2017-03-04T02:39:27.142Z,0
2017-03-04T02:40:07.570Z,0
2017-03-04T02:40:47.948Z,0
2017-03-04T02:41:28.319Z,0
2017-03-04T02:42:08.719Z,0
2017-03-04T02:42:49.098Z,0
2017-03-04T02:43:29.486Z,0
2017-03-04T02:44:09.912Z,0
2017-03-04T02:44:50.267Z,0
2017-03-04T02:45:30.652Z,0
2017-03-04T02:46:11.042Z,0
2017-03-04T02:46:51.415Z,0
2017-03-04T02:47:31.826Z,0
2017-03-04T02:48:12.203Z,0
2017-03-04T02:48:52.584Z,0
2017-03-04T02:49:33.002Z,0
2017-03-04T02:50:13.358Z,0
2017-03-04T02:50:54.435Z,0
2017-03-04T02:51:34.817Z,0
2017-03-04T02:52:15.274Z,0
2017-03-04T02:52:55.688Z,0
2017-03-04T02:53:36.101Z,0
2017-03-04T02:54:16.489Z,0
2017-03-04T02:54:56.876Z,0
2017-03-04T02:56:49.359Z,0
2017-03-04T02:57:29.797Z,0
2017-03-04T02:58:10.247Z,0
2017-03-04T02:58:50.704Z,0
2017-03-04T02:59:31.071Z,0
2017-03-04T03:00:11.521Z,0
2017-03-04T03:00:51.975Z,0
2017-03-04T03:01:32.365Z,0
2017-03-04T03:02:12.779Z,0
2017-03-04T03:02:53.179Z,0
2017-03-04T03:05:10.906Z,0
2017-03-04T03:05:51.333Z,0
2017-03-04T03:06:31.836Z,0
2017-03-04T03:07:12.186Z,0
2017-03-04T03:07:52.618Z,0
2017-03-04T03:08:33.037Z,0
2017-03-04T03:09:13.430Z,0
2017-03-04T03:09:53.799Z,0
2017-03-04T03:10:34.206Z,0
2017-03-04T03:11:14.594Z,0
2017-03-04T03:11:55.007Z,0
2017-03-04T03:12:35.453Z,0
2017-03-04T03:13:15.803Z,0
2017-03-04T03:13:56.153Z,0
2017-03-04T03:16:23.946Z,0
2017-03-04T03:17:04.382Z,0
2017-03-04T03:17:44.754Z,0
2017-03-04T03:18:25.134Z,0
2017-03-04T03:19:05.543Z,0
2017-03-04T03:19:45.923Z,0
2017-03-04T03:20:26.323Z,0
2017-03-04T03:21:06.739Z,0
2017-03-04T03:21:47.116Z,0
2017-03-04T03:22:27.547Z,0
2017-03-04T03:23:07.956Z,0
2017-03-04T03:23:48.362Z,0
2017-03-04T03:24:28.727Z,0
2017-03-04T03:26:56.523Z,0
2017-03-04T03:27:36.946Z,0
2017-03-04T03:28:17.420Z,0
2017-03-04T03:28:57.871Z,0
2017-03-04T03:29:38.265Z,0
2017-03-04T03:30:18.612Z,0
2017-03-04T03:30:59.022Z,0
2017-03-04T03:31:39.459Z,0
2017-03-04T03:32:19.876Z,0
2017-03-04T03:33:00.252Z,0
2017-03-04T03:33:40.632Z,0
2017-03-04T03:34:21.032Z,0
2017-03-04T03:35:01.436Z,0
2017-03-04T03:35:41.859Z,0
2017-03-04T03:36:22.197Z,0
2017-03-04T03:37:02.595Z,0
2017-03-04T03:37:43.012Z,0
2017-03-04T03:38:23.406Z,0
2017-03-04T03:39:03.970Z,0
2017-03-04T03:39:44.362Z,0
2017-03-04T03:40:24.719Z,0
2017-03-04T03:41:05.130Z,0
2017-03-04T03:41:45.517Z,0
2017-03-04T03:42:25.884Z,0
2017-03-04T03:43:06.271Z,0
2017-03-04T03:43:46.648Z,0
2017-03-04T03:44:27.031Z,0
2017-03-04T03:45:07.404Z,0
2017-03-04T03:45:47.780Z,0
2017-03-04T03:46:28.167Z,0
2017-03-04T03:47:08.568Z,0
2017-03-04T03:47:48.948Z,0
2017-03-04T03:48:29.896Z,0
2017-03-04T03:49:10.275Z,0
2017-03-04T03:49:50.638Z,0
2017-03-04T03:50:31.037Z,0
2017-03-04T03:51:11.453Z,0
2017-03-04T03:51:51.810Z,0
2017-03-04T03:52:32.203Z,0
2017-03-04T03:53:12.568Z,0
2017-03-04T03:53:53.005Z,0
2017-03-04T03:54:33.472Z,0
2017-03-04T03:55:13.813Z,0
2017-03-04T03:55:54.182Z,0
2017-03-04T03:56:34.563Z,0
2017-03-04T03:57:14.936Z,0
2017-03-04T03:57:55.321Z,0
2017-03-04T03:58:35.680Z,0
2017-03-04T03:59:16.075Z,0
2017-03-04T03:59:56.427Z,0
2017-03-04T04:00:36.815Z,0
2017-03-04T04:01:17.241Z,0
2017-03-04T04:01:57.594Z,0
2017-03-04T04:02:38.008Z,0
2017-03-04T04:03:18.405Z,0
2017-03-04T04:03:58.768Z,0
2017-03-04T04:04:39.152Z,0
2017-03-04T04:05:19.575Z,0
2017-03-04T04:06:00.001Z,0
2017-03-04T04:06:40.403Z,0
2017-03-04T04:08:53.059Z,0
2017-03-04T04:09:33.485Z,0
2017-03-04T04:10:13.921Z,0
2017-03-04T04:10:54.379Z,0
2017-03-04T04:11:34.799Z,0
2017-03-04T04:12:15.946Z,0
2017-03-04T04:12:56.397Z,0
2017-03-04T04:13:36.848Z,0
2017-03-04T04:14:17.301Z,0
2017-03-04T04:14:57.705Z,0
2017-03-04T04:15:38.155Z,0
2017-03-04T04:16:18.588Z,0
2017-03-04T04:16:58.983Z,0
2017-03-04T04:17:39.966Z,0
2017-03-04T04:18:20.353Z,0
2017-03-04T04:19:00.749Z,0
2017-03-04T04:19:41.133Z,0
2017-03-04T04:20:21.521Z,0
2017-03-04T04:21:01.935Z,0
2017-03-04T04:21:42.307Z,0
2017-03-04T04:22:22.713Z,0
2017-03-04T04:23:03.117Z,0
2017-03-04T04:23:43.516Z,0
2017-03-04T04:24:23.898Z,0
2017-03-04T04:25:04.302Z,0
2017-03-04T04:25:44.724Z,0
2017-03-04T04:26:26.002Z,0
2017-03-04T04:27:06.420Z,0
2017-03-04T04:27:46.836Z,0
2017-03-04T04:28:28.171Z,0
2017-03-04T04:29:08.571Z,0
2017-03-04T04:29:48.992Z,0
2017-03-04T04:30:29.352Z,0
2017-03-04T04:31:09.737Z,0
2017-03-04T04:31:50.159Z,0
2017-03-04T04:32:30.548Z,0
2017-03-04T04:33:10.964Z,0
2017-03-04T04:33:51.389Z,0
2017-03-04T04:34:31.797Z,0
2017-03-04T04:35:12.242Z,0
2017-03-04T04:35:52.634Z,0
2017-03-04T04:36:33.045Z,0
2017-03-04T04:37:13.422Z,0
2017-03-04T04:37:53.803Z,0
2017-03-04T04:38:34.215Z,0
2017-03-04T04:40:51.903Z,0
2017-03-04T04:41:32.336Z,0
2017-03-04T04:42:12.729Z,0
2017-03-04T04:42:53.175Z,0
2017-03-04T04:43:33.618Z,0
2017-03-04T04:44:14.041Z,0
2017-03-04T04:44:54.470Z,0
2017-03-04T04:45:34.872Z,0
2017-03-04T04:46:15.302Z,0
2017-03-04T04:46:55.729Z,0
2017-03-04T04:47:36.170Z,0
2017-03-04T04:48:16.606Z,0
2017-03-04T04:48:57.034Z,0
2017-03-04T04:49:37.465Z,0
2017-03-04T04:50:17.892Z,0
2017-03-04T04:50:58.353Z,0
2017-03-04T04:51:38.794Z,0
2017-03-04T04:52:19.236Z,0
2017-03-04T04:52:59.662Z,0
2017-03-04T04:53:40.101Z,0
2017-03-04T04:54:20.530Z,0
2017-03-04T04:55:00.967Z,0
2017-03-04T04:55:41.397Z,0
2017-03-04T04:56:21.798Z,0
2017-03-04T04:57:02.239Z,0
2017-03-04T04:57:42.680Z,0
2017-03-04T04:58:23.128Z,0
2017-03-04T04:59:04.250Z,0
2017-03-04T04:59:44.683Z,0
2017-03-04T05:00:25.090Z,0
2017-03-04T05:01:05.522Z,0
2017-03-04T05:01:45.950Z,0
2017-03-04T05:02:26.358Z,0
2017-03-04T05:03:06.782Z,0
2017-03-04T05:03:47.188Z,0
2017-03-04T05:04:27.617Z,0
2017-03-04T05:05:08.042Z,0
2017-03-04T05:05:48.476Z,0
2017-03-04T05:06:28.905Z,0
2017-03-04T05:07:09.343Z,0
2017-03-04T05:07:49.777Z,0
2017-03-04T05:08:30.177Z,0
2017-03-04T05:09:10.607Z,0
2017-03-04T05:09:50.989Z,0
2017-03-04T05:10:31.369Z,0
2017-03-04T05:11:11.757Z,0
2017-03-04T05:11:52.177Z,0
2017-03-04T05:12:32.566Z,0
2017-03-04T05:13:12.948Z,0
2017-03-04T05:13:53.335Z,0
2017-03-04T05:14:33.713Z,0
2017-03-04T05:15:14.130Z,0
2017-03-04T05:15:54.545Z,0
2017-03-04T05:16:34.950Z,0
2017-03-04T05:17:15.344Z,0
2017-03-04T05:17:55.753Z,0
2017-03-04T05:18:36.154Z,0
2017-03-04T05:19:16.563Z,0
2017-03-04T05:19:56.931Z,0
2017-03-04T05:20:37.321Z,0
2017-03-04T05:21:17.737Z,0
2017-03-04T05:21:58.196Z,0
2017-03-04T05:22:38.647Z,0
2017-03-04T05:23:19.060Z,0
2017-03-04T05:23:59.484Z,0
2017-03-04T05:24:39.924Z,0
2017-03-04T05:25:20.319Z,0
2017-03-04T05:26:00.740Z,0
2017-03-04T05:26:41.187Z,0
2017-03-04T05:27:21.635Z,0
2017-03-04T05:28:02.068Z,0
2017-03-04T05:28:42.496Z,0
2017-03-04T05:29:22.932Z,0
2017-03-04T05:30:03.352Z,0
2017-03-04T05:30:43.772Z,0
2017-03-04T05:31:24.202Z,0
2017-03-04T05:32:04.628Z,0
2017-03-04T05:32:45.038Z,0
2017-03-04T05:33:25.464Z,0
2017-03-04T05:34:05.933Z,0
2017-03-04T05:34:46.353Z,0
2017-03-04T05:35:26.808Z,0
2017-03-04T07:37:01.197Z,0
2017-03-04T07:38:53.628Z,0
2017-03-04T07:39:34.051Z,0
2017-03-04T07:40:14.483Z,0
2017-03-04T07:40:54.875Z,0
2017-03-04T07:41:35.296Z,0
2017-03-04T07:42:15.713Z,0
2017-03-04T07:42:56.105Z,0
2017-03-04T07:43:36.547Z,0
2017-03-04T07:44:16.980Z,0
2017-03-04T07:44:57.393Z,0
2017-03-04T07:45:37.838Z,0
2017-03-04T07:46:18.291Z,0
2017-03-04T07:46:58.730Z,0
2017-03-04T07:47:39.120Z,0
2017-03-04T07:48:19.571Z,0
2017-03-04T07:49:00.234Z,0
2017-03-04T07:49:40.685Z,0
2017-03-04T07:50:21.115Z,0
2017-03-04T07:51:01.546Z,0
2017-03-04T07:51:41.969Z,0
2017-03-04T07:52:22.372Z,0
2017-03-04T07:53:02.788Z,0
2017-03-04T07:53:43.240Z,0
2017-03-04T07:54:23.643Z,0
2017-03-04T07:55:04.047Z,0
2017-03-04T07:55:44.488Z,0
2017-03-04T07:56:24.957Z,0
2017-03-04T07:57:05.402Z,0
2017-03-04T07:57:45.836Z,0
2017-03-04T07:58:26.243Z,0
2017-03-04T07:59:06.643Z,0
2017-03-04T07:59:47.048Z,0
2017-03-04T08:00:27.456Z,0
2017-03-04T08:01:07.909Z,0
2017-03-04T08:01:48.335Z,0
2017-03-04T08:02:28.727Z,0
2017-03-04T08:03:09.158Z,0
2017-03-04T08:05:36.963Z,0
2017-03-04T08:06:17.411Z,0
2017-03-04T08:06:57.820Z,0
2017-03-04T08:07:38.269Z,0
2017-03-04T08:08:18.683Z,0
2017-03-04T08:08:59.132Z,0
2017-03-04T08:09:39.547Z,0
2017-03-04T08:10:19.993Z,0
2017-03-04T08:11:00.394Z,0
2017-03-04T08:11:40.834Z,0
2017-03-04T08:12:21.253Z,0
2017-03-04T08:13:01.672Z,0
2017-03-04T08:13:42.064Z,0
2017-03-04T08:14:22.436Z,0
2017-03-04T08:15:02.851Z,0
2017-03-04T08:15:43.301Z,0
2017-03-04T08:16:23.713Z,0
2017-03-04T08:17:04.141Z,0
2017-03-04T08:17:44.572Z,0
2017-03-04T08:18:25.008Z,0
2017-03-04T08:19:05.437Z,0
2017-03-04T08:19:45.854Z,0
2017-03-04T08:20:26.306Z,0
2017-03-04T08:21:06.682Z,0
2017-03-04T08:21:47.115Z,0
2017-03-04T08:22:27.500Z,0
2017-03-04T08:23:07.935Z,0
2017-03-04T08:23:49.139Z,0
2017-03-04T08:24:29.563Z,0
2017-03-04T08:25:09.967Z,0
2017-03-04T08:25:50.390Z,0
2017-03-04T08:28:03.058Z,0
2017-03-04T08:28:43.499Z,0
2017-03-04T08:29:23.928Z,0
2017-03-04T08:30:04.362Z,0
2017-03-04T08:30:44.810Z,0
2017-03-04T08:31:25.251Z,0
2017-03-04T08:32:05.704Z,0
2017-03-04T08:32:46.166Z,0
2017-03-04T08:33:26.597Z,0
2017-03-04T08:34:07.013Z,0
2017-03-04T08:34:47.460Z,0
2017-03-04T08:35:27.917Z,0
2017-03-04T08:36:08.348Z,0
2017-03-04T08:36:48.785Z,0
2017-03-04T08:37:29.225Z,0
2017-03-04T08:38:09.660Z,0
2017-03-04T08:38:50.104Z,0
2017-03-04T08:39:30.556Z,0
2017-03-04T08:40:11.001Z,0
2017-03-04T08:40:51.459Z,0
2017-03-04T08:41:31.918Z,0
2017-03-04T08:42:12.363Z,0
2017-03-04T08:42:52.810Z,0
2017-03-04T08:43:33.242Z,0
2017-03-04T08:44:13.688Z,0
2017-03-04T08:44:54.131Z,0
2017-03-04T08:45:34.564Z,0
2017-03-04T08:46:15.021Z,0
2017-03-04T08:46:55.487Z,0
2017-03-04T08:47:35.939Z,0
2017-03-04T08:48:16.398Z,0
2017-03-04T08:48:56.845Z,0
2017-03-04T08:49:37.288Z,0
2017-03-04T08:50:17.726Z,0
2017-03-04T08:50:58.161Z,0
2017-03-04T08:51:38.602Z,0
2017-03-04T08:52:19.064Z,0
2017-03-04T08:52:59.502Z,0
2017-03-04T08:53:39.955Z,0
2017-03-04T08:54:20.415Z,0
2017-03-04T08:55:00.877Z,0
2017-03-04T08:55:41.348Z,0
2017-03-04T08:56:21.792Z,0
2017-03-04T08:57:02.247Z,0
2017-03-04T08:57:42.690Z,0
2017-03-04T08:58:23.147Z,0
2017-03-04T08:59:03.574Z,0
2017-03-04T08:59:44.012Z,0
2017-03-04T09:00:24.470Z,0
2017-03-04T09:01:04.918Z,0
2017-03-04T09:01:45.358Z,0
2017-03-04T09:02:25.812Z,0
2017-03-04T09:03:06.276Z,0
2017-03-04T09:03:46.727Z,0
2017-03-04T09:04:27.182Z,0
2017-03-04T09:05:07.621Z,0
2017-03-04T09:05:48.066Z,0
2017-03-04T09:06:28.490Z,0
2017-03-04T09:07:08.935Z,0
2017-03-04T09:07:49.391Z,0
2017-03-04T09:08:29.830Z,0
2017-03-04T09:09:10.262Z,0
2017-03-04T09:09:50.685Z,0
2017-03-04T09:10:31.130Z,0
2017-03-04T09:11:11.584Z,0
2017-03-04T09:11:52.038Z,0
2017-03-04T09:12:32.483Z,0
2017-03-04T09:13:12.938Z,0
2017-03-04T09:13:53.377Z,0
2017-03-04T09:14:33.817Z,0
2017-03-04T09:15:14.252Z,0
2017-03-04T09:15:54.696Z,0
2017-03-04T09:16:35.143Z,0
2017-03-04T09:17:15.588Z,0
2017-03-04T09:17:56.042Z,0
2017-03-04T09:18:36.499Z,0
2017-03-04T09:19:16.960Z,0
2017-03-04T09:19:57.380Z,0
2017-03-04T09:20:37.807Z,0
2017-03-04T09:21:18.256Z,0
2017-03-04T09:21:58.707Z,0
2017-03-04T09:22:39.151Z,0
2017-03-04T09:23:19.605Z,0
2017-03-04T09:24:00.022Z,0
2017-03-04T09:24:40.447Z,0
2017-03-04T09:25:20.900Z,0
2017-03-04T09:26:01.346Z,0
2017-03-04T09:26:41.796Z,0
2017-03-04T09:27:22.249Z,0
2017-03-04T09:28:02.658Z,0
2017-03-04T09:28:43.090Z,0
2017-03-04T09:29:23.540Z,0
2017-03-04T09:30:03.990Z,0
2017-03-04T09:30:44.440Z,0
2017-03-04T09:31:24.898Z,0
2017-03-04T09:32:05.351Z,0
2017-03-04T09:32:45.796Z,0
2017-03-04T09:33:26.228Z,0
2017-03-04T09:34:06.655Z,0
2017-03-04T09:34:47.137Z,0
2017-03-04T09:35:27.551Z,0
2017-03-04T09:36:07.975Z,0
2017-03-04T09:36:48.407Z,0
2017-03-04T09:37:28.846Z,0
2017-03-04T09:38:09.298Z,0
2017-03-04T09:38:49.734Z,0
2017-03-04T09:39:30.170Z,0
2017-03-04T09:40:10.609Z,0
2017-03-04T09:40:51.032Z,0
2017-03-04T09:41:31.484Z,0
2017-03-04T09:42:11.929Z,0
2017-03-04T09:42:52.369Z,0
2017-03-04T09:43:32.818Z,0
2017-03-04T09:44:13.249Z,0
2017-03-04T09:44:53.689Z,0
2017-03-04T09:45:34.221Z,0
2017-03-04T09:46:14.627Z,0
2017-03-04T09:46:55.065Z,0
2017-03-04T09:47:35.513Z,0
2017-03-04T09:48:15.955Z,0
2017-03-04T09:48:56.401Z,0
2017-03-04T09:49:36.834Z,0
2017-03-04T09:50:17.251Z,0
2017-03-04T09:50:57.665Z,0
2017-03-04T09:51:38.077Z,0
2017-03-04T09:52:18.516Z,0
2017-03-04T09:52:58.942Z,0
2017-03-04T09:53:39.389Z,0
2017-03-04T09:54:19.843Z,0
2017-03-04T09:55:00.272Z,0
2017-03-04T09:55:40.707Z,0
2017-03-04T09:56:21.162Z,0
2017-03-04T09:57:01.604Z,0
2017-03-04T09:57:42.054Z,0
2017-03-04T09:58:22.489Z,0
2017-03-04T09:59:02.896Z,0
2017-03-04T09:59:43.306Z,0
2017-03-04T10:00:23.686Z,0
2017-03-04T10:01:04.230Z,0
2017-03-04T10:01:44.663Z,0
2017-03-04T10:02:25.087Z,0
2017-03-04T10:03:05.546Z,0
2017-03-04T10:03:45.996Z,0
2017-03-04T10:04:27.125Z,0
2017-03-04T10:05:06.883Z,0
2017-03-04T10:05:47.325Z,0
2017-03-04T10:06:27.744Z,0
2017-03-04T10:07:08.183Z,0
2017-03-04T10:07:48.625Z,0
2017-03-04T10:08:29.053Z,0
2017-03-04T10:09:09.482Z,0
2017-03-04T10:09:49.915Z,0
2017-03-04T10:10:30.360Z,0
2017-03-04T10:11:10.811Z,0
2017-03-04T10:11:51.270Z,0
2017-03-04T10:12:31.736Z,0
2017-03-04T10:13:12.174Z,0
2017-03-04T10:13:52.603Z,0
2017-03-04T10:14:33.022Z,0
2017-03-04T10:15:13.452Z,0
2017-03-04T10:15:53.907Z,0
2017-03-04T10:16:34.343Z,0
2017-03-04T10:17:14.779Z,0
2017-03-04T10:17:55.210Z,0
2017-03-04T10:18:35.647Z,0
2017-03-04T10:19:16.108Z,0
2017-03-04T10:19:56.564Z,0
2017-03-04T10:20:37.020Z,0
2017-03-04T10:21:17.486Z,0
2017-03-04T10:21:57.951Z,0
2017-03-04T10:22:38.339Z,0
2017-03-04T10:24:30.854Z,0
2017-03-04T10:25:11.267Z,0
2017-03-04T10:25:51.667Z,0
2017-03-04T10:26:32.079Z,0
2017-03-04T10:27:12.467Z,0
2017-03-04T10:27:52.868Z,0
2017-03-04T10:28:33.308Z,0
2017-03-04T10:29:13.735Z,0
2017-03-04T10:29:54.122Z,0
2017-03-04T10:30:34.530Z,0
2017-03-04T10:31:14.958Z,0
2017-03-04T10:31:55.373Z,0
2017-03-04T10:32:35.781Z,0
2017-03-04T10:33:16.246Z,0
2017-03-04T10:33:56.633Z,0
2017-03-04T10:34:37.042Z,0
2017-03-04T10:35:17.450Z,0
2017-03-04T10:35:57.863Z,0
2017-03-04T10:36:38.270Z,0
2017-03-04T10:37:18.664Z,0
2017-03-04T10:37:59.074Z,0
2017-03-04T10:38:39.482Z,0
2017-03-04T10:39:19.896Z,0
2017-03-04T10:40:00.304Z,0
2017-03-04T10:40:40.720Z,0
2017-03-04T10:41:21.118Z,0
2017-03-04T10:42:01.522Z,0
2017-03-04T10:42:41.939Z,0
2017-03-04T10:43:22.377Z,0
2017-03-04T10:44:02.803Z,0
2017-03-04T10:44:43.220Z,0
2017-03-04T10:45:23.649Z,0
2017-03-04T10:46:04.072Z,0
2017-03-04T10:46:44.471Z,0
2017-03-04T10:47:24.872Z,0
2017-03-04T10:48:05.303Z,0
2017-03-04T10:48:45.735Z,0
2017-03-04T10:49:26.197Z,0
2017-03-04T10:50:06.605Z,0
2017-03-04T10:50:47.219Z,0
2017-03-04T10:51:27.642Z,0
2017-03-04T10:52:08.064Z,0
2017-03-04T10:52:48.492Z,0
2017-03-04T10:53:29.172Z,0
2017-03-04T10:55:21.687Z,0
2017-03-04T10:56:02.147Z,0
2017-03-04T10:56:42.559Z,0
2017-03-04T10:57:23.193Z,0
2017-03-04T10:58:03.626Z,0
2017-03-04T10:58:44.033Z,0
2017-03-04T10:59:24.473Z,0
2017-03-04T11:00:04.893Z,0
2017-03-04T11:00:45.293Z,0
2017-03-04T11:01:25.692Z,0
2017-03-04T11:02:06.096Z,0
2017-03-04T11:02:46.505Z,0
2017-03-04T11:03:26.907Z,0
2017-03-04T11:04:07.378Z,0
2017-03-04T11:04:47.772Z,0
2017-03-04T11:05:28.269Z,0
2017-03-04T11:06:08.715Z,0
2017-03-04T11:08:36.556Z,0
2017-03-04T11:09:17.001Z,0
2017-03-04T11:09:57.424Z,0
2017-03-04T11:10:37.844Z,0
2017-03-04T11:11:18.268Z,0
2017-03-04T11:11:58.707Z,0
2017-03-04T11:12:39.167Z,0
2017-03-04T11:13:19.626Z,0
2017-03-04T11:14:00.110Z,0
2017-03-04T11:14:40.544Z,0
2017-03-04T11:15:21.001Z,0
2017-03-04T11:16:01.458Z,0
2017-03-04T11:16:41.927Z,0
2017-03-04T11:17:22.377Z,0
2017-03-04T11:18:02.823Z,0
2017-03-04T11:18:43.236Z,0
2017-03-04T11:19:23.666Z,0
2017-03-04T11:20:04.070Z,0
2017-03-04T11:20:44.476Z,0
2017-03-04T11:21:24.908Z,0
2017-03-04T11:22:05.309Z,0
2017-03-04T11:22:45.699Z,0
2017-03-04T11:23:26.106Z,0
2017-03-04T11:24:06.537Z,0
2017-03-04T11:24:46.954Z,0
2017-03-04T11:25:27.380Z,0
2017-03-04T11:26:07.789Z,0
2017-03-04T11:26:48.209Z,0
2017-03-04T11:27:28.598Z,0
2017-03-04T11:28:09.006Z,0
2017-03-04T11:28:49.373Z,0
2017-03-04T11:29:29.789Z,0
2017-03-04T11:30:10.202Z,0
2017-03-04T11:30:50.637Z,0
2017-03-04T11:33:18.509Z,0
2017-03-04T11:33:58.937Z,0
2017-03-04T11:34:39.389Z,0
2017-03-04T11:35:19.826Z,0
2017-03-04T11:41:55.764Z,981.12
2017-03-04T11:42:36.244Z,981.1
2017-03-04T11:43:16.734Z,981.02
2017-03-04T11:43:57.263Z,980.98
2017-03-04T11:44:37.714Z,980.9
2017-03-04T11:45:18.233Z,980.89
2017-03-04T11:45:58.721Z,980.92
2017-03-04T11:46:39.216Z,980.85
2017-03-04T11:47:19.690Z,980.85
2017-03-04T11:48:00.142Z,980.74
2017-03-04T11:48:40.643Z,980.67
2017-03-04T11:49:21.120Z,980.71
2017-03-04T11:50:01.580Z,980.76
2017-03-04T11:50:42.104Z,980.81
2017-03-04T11:51:22.579Z,980.82
2017-03-04T11:52:03.039Z,980.9
2017-03-04T11:52:43.503Z,980.97
2017-03-04T11:53:23.967Z,980.93
2017-03-04T11:54:04.434Z,980.9
2017-03-04T11:54:44.879Z,980.89
2017-03-04T11:55:25.520Z,980.86
2017-03-04T11:56:05.834Z,980.9
2017-03-04T11:56:46.264Z,980.78
2017-03-04T11:57:26.706Z,980.76
2017-03-04T11:59:39.454Z,980.75
2017-03-04T12:00:19.926Z,980.82
2017-03-04T12:01:00.364Z,980.8
2017-03-04T12:01:40.817Z,980.8
2017-03-04T12:02:21.275Z,980.85
2017-03-04T12:03:01.731Z,980.87
2017-03-04T12:03:42.175Z,980.87
2017-03-04T12:04:22.613Z,980.89
2017-03-04T12:05:03.036Z,980.87
2017-03-04T12:05:43.517Z,980.86
2017-03-04T12:06:23.977Z,980.85
2017-03-04T12:07:04.412Z,980.85
2017-03-04T12:09:02.071Z,980.69
2017-03-04T12:09:43.117Z,980.74
2017-03-04T12:10:23.602Z,980.7
2017-03-04T12:11:04.068Z,980.67
2017-03-04T12:11:44.563Z,980.69
2017-03-04T12:12:25.066Z,980.67
2017-03-04T12:13:05.517Z,980.69
2017-03-04T12:13:45.997Z,980.75
2017-03-04T12:14:26.461Z,980.71
2017-03-04T12:15:06.924Z,980.71
2017-03-04T12:15:47.419Z,980.7
2017-03-04T12:16:27.871Z,980.74
2017-03-04T12:17:08.334Z,980.72
2017-03-04T12:17:48.752Z,980.73
2017-03-04T12:18:29.204Z,980.76
2017-03-04T12:19:09.678Z,980.75
2017-03-04T12:19:50.173Z,980.75
2017-03-04T12:20:30.668Z,980.76
2017-03-04T12:21:11.150Z,980.71
2017-03-04T12:21:51.641Z,980.72
2017-03-04T12:22:32.094Z,980.72
2017-03-04T12:23:12.565Z,980.77
2017-03-04T12:23:53.018Z,980.78
2017-03-04T12:24:33.540Z,980.78
2017-03-04T12:25:14.008Z,980.77
2017-03-04T12:25:54.461Z,980.78
2017-03-04T12:26:34.953Z,980.8
2017-03-04T12:27:15.441Z,980.75
2017-03-04T12:27:55.924Z,980.68
2017-03-04T12:28:36.407Z,980.67